sensor_id;sensor_type;location;lat;lon;timestamp;P1;durP1;ratioP1;P2;durP2;ratioP2
36475;SDS011;56615;42.682;23.364;2023-02-14T00:01:45;37.83;;;21.73;;
36475;SDS011;56615;42.682;23.364;2023-02-14T00:04:11;35.17;;;20.75;;
36475;SDS011;56615;42.682;23.364;2023-02-14T00:06:37;32.05;;;19.90;;
36475;SDS011;56615;42.682;23.364;2023-02-14T00:09:04;34.65;;;20.70;;
36475;SDS011;56615;42.682;23.364;2023-02-14T00:11:40;31.65;;;20.27;;
36475;SDS011;56615;42.682;23.364;2023-02-14T00:14:06;34.00;;;19.75;;
36475;SDS011;56615;42.682;23.364;2023-02-14T00:16:50;35.30;;;20.48;;
36475;SDS011;56615;42.682;23.364;2023-02-14T00:19:17;34.47;;;20.38;;
36475;SDS011;56615;42.682;23.364;2023-02-14T00:21:43;32.80;;;20.25;;
36475;SDS011;56615;42.682;23.364;2023-02-14T00:24:10;33.92;;;20.95;;
36475;SDS011;56615;42.682;23.364;2023-02-14T00:26:38;31.90;;;19.25;;
36475;SDS011;56615;42.682;23.364;2023-02-14T00:29:04;32.47;;;20.05;;
36475;SDS011;56615;42.682;23.364;2023-02-14T00:31:31;35.78;;;19.60;;
36475;SDS011;56615;42.682;23.364;2023-02-14T00:33:56;33.88;;;19.90;;
36475;SDS011;56615;42.682;23.364;2023-02-14T00:36:22;32.55;;;19.92;;
36475;SDS011;56615;42.682;23.364;2023-02-14T00:38:47;32.10;;;19.48;;
36475;SDS011;56615;42.682;23.364;2023-02-14T00:41:12;34.00;;;20.23;;
36475;SDS011;56615;42.682;23.364;2023-02-14T00:43:43;34.03;;;20.05;;
36475;SDS011;56615;42.682;23.364;2023-02-14T00:46:10;30.65;;;20.15;;
36475;SDS011;56615;42.682;23.364;2023-02-14T00:48:35;34.58;;;20.63;;
36475;SDS011;56615;42.682;23.364;2023-02-14T00:51:01;33.83;;;20.17;;
36475;SDS011;56615;42.682;23.364;2023-02-14T00:53:26;30.85;;;19.92;;
36475;SDS011;56615;42.682;23.364;2023-02-14T00:55:52;31.10;;;19.88;;
36475;SDS011;56615;42.682;23.364;2023-02-14T00:58:17;33.03;;;19.23;;
36475;SDS011;56615;42.682;23.364;2023-02-14T01:00:42;31.25;;;20.35;;
36475;SDS011;56615;42.682;23.364;2023-02-14T01:03:08;31.15;;;19.60;;
36475;SDS011;56615;42.682;23.364;2023-02-14T01:05:33;32.40;;;20.23;;
36475;SDS011;56615;42.682;23.364;2023-02-14T01:07:58;31.05;;;19.85;;
36475;SDS011;56615;42.682;23.364;2023-02-14T01:10:24;33.15;;;20.67;;
36475;SDS011;56615;42.682;23.364;2023-02-14T01:12:50;33.83;;;20.58;;
36475;SDS011;56615;42.682;23.364;2023-02-14T01:15:15;33.38;;;20.42;;
36475;SDS011;56615;42.682;23.364;2023-02-14T01:17:40;33.22;;;21.08;;
36475;SDS011;56615;42.682;23.364;2023-02-14T01:20:07;33.80;;;21.13;;
36475;SDS011;56615;42.682;23.364;2023-02-14T01:22:34;35.03;;;21.58;;
36475;SDS011;56615;42.682;23.364;2023-02-14T01:25:00;32.35;;;20.17;;
36475;SDS011;56615;42.682;23.364;2023-02-14T01:27:26;32.88;;;20.92;;
36475;SDS011;56615;42.682;23.364;2023-02-14T01:29:51;35.15;;;21.52;;
36475;SDS011;56615;42.682;23.364;2023-02-14T01:32:16;33.17;;;21.08;;
36475;SDS011;56615;42.682;23.364;2023-02-14T01:34:42;33.88;;;20.23;;
36475;SDS011;56615;42.682;23.364;2023-02-14T01:37:07;37.20;;;21.90;;
36475;SDS011;56615;42.682;23.364;2023-02-14T01:39:33;32.85;;;20.38;;
36475;SDS011;56615;42.682;23.364;2023-02-14T01:41:58;32.42;;;20.63;;
36475;SDS011;56615;42.682;23.364;2023-02-14T01:46:49;36.20;;;20.40;;
36475;SDS011;56615;42.682;23.364;2023-02-14T01:52:10;33.20;;;20.60;;
36475;SDS011;56615;42.682;23.364;2023-02-14T01:54:39;34.53;;;21.20;;
36475;SDS011;56615;42.682;23.364;2023-02-14T01:57:09;32.80;;;20.67;;
36475;SDS011;56615;42.682;23.364;2023-02-14T01:59:37;33.70;;;20.63;;
36475;SDS011;56615;42.682;23.364;2023-02-14T02:02:06;37.67;;;21.55;;
36475;SDS011;56615;42.682;23.364;2023-02-14T02:04:32;35.50;;;20.77;;
36475;SDS011;56615;42.682;23.364;2023-02-14T02:07:01;33.63;;;21.10;;
36475;SDS011;56615;42.682;23.364;2023-02-14T02:09:48;35.72;;;21.58;;
36475;SDS011;56615;42.682;23.364;2023-02-14T02:12:15;36.80;;;21.75;;
36475;SDS011;56615;42.682;23.364;2023-02-14T02:14:41;34.47;;;20.45;;
36475;SDS011;56615;42.682;23.364;2023-02-14T02:17:10;35.25;;;21.30;;
36475;SDS011;56615;42.682;23.364;2023-02-14T02:42:00;36.63;;;22.17;;
36475;SDS011;56615;42.682;23.364;2023-02-14T02:44:30;35.50;;;22.33;;
36475;SDS011;56615;42.682;23.364;2023-02-14T02:50:17;34.65;;;20.98;;
36475;SDS011;56615;42.682;23.364;2023-02-14T02:53:06;37.70;;;22.30;;
36475;SDS011;56615;42.682;23.364;2023-02-14T02:55:52;34.83;;;21.67;;
36475;SDS011;56615;42.682;23.364;2023-02-14T02:58:47;35.47;;;21.77;;
36475;SDS011;56615;42.682;23.364;2023-02-14T03:01:42;35.10;;;21.15;;
36475;SDS011;56615;42.682;23.364;2023-02-14T03:04:11;35.78;;;20.73;;
36475;SDS011;56615;42.682;23.364;2023-02-14T03:06:55;33.08;;;20.73;;
36475;SDS011;56615;42.682;23.364;2023-02-14T03:11:58;36.80;;;21.75;;
36475;SDS011;56615;42.682;23.364;2023-02-14T03:25:23;33.60;;;18.77;;
36475;SDS011;56615;42.682;23.364;2023-02-14T03:38:44;32.67;;;19.05;;
36475;SDS011;56615;42.682;23.364;2023-02-14T03:41:16;31.63;;;18.80;;
36475;SDS011;56615;42.682;23.364;2023-02-14T03:43:59;30.52;;;18.75;;
36475;SDS011;56615;42.682;23.364;2023-02-14T03:46:35;33.05;;;19.75;;
36475;SDS011;56615;42.682;23.364;2023-02-14T03:49:06;34.60;;;19.52;;
36475;SDS011;56615;42.682;23.364;2023-02-14T03:51:34;33.08;;;18.45;;
36475;SDS011;56615;42.682;23.364;2023-02-14T03:54:00;32.78;;;19.58;;
36475;SDS011;56615;42.682;23.364;2023-02-14T03:59:08;31.27;;;18.67;;
36475;SDS011;56615;42.682;23.364;2023-02-14T04:02:00;32.30;;;19.33;;
36475;SDS011;56615;42.682;23.364;2023-02-14T04:04:26;29.85;;;17.88;;
36475;SDS011;56615;42.682;23.364;2023-02-14T04:06:53;32.63;;;18.58;;
36475;SDS011;56615;42.682;23.364;2023-02-14T04:09:19;29.60;;;17.95;;
36475;SDS011;56615;42.682;23.364;2023-02-14T04:11:44;34.08;;;19.77;;
36475;SDS011;56615;42.682;23.364;2023-02-14T04:14:11;33.70;;;18.00;;
36475;SDS011;56615;42.682;23.364;2023-02-14T04:16:36;33.70;;;19.67;;
36475;SDS011;56615;42.682;23.364;2023-02-14T04:19:20;32.85;;;18.38;;
36475;SDS011;56615;42.682;23.364;2023-02-14T04:21:49;31.52;;;18.50;;
36475;SDS011;56615;42.682;23.364;2023-02-14T04:24:15;33.45;;;19.25;;
36475;SDS011;56615;42.682;23.364;2023-02-14T04:26:40;34.08;;;19.10;;
36475;SDS011;56615;42.682;23.364;2023-02-14T04:29:18;29.65;;;17.77;;
36475;SDS011;56615;42.682;23.364;2023-02-14T04:31:44;30.67;;;18.13;;
36475;SDS011;56615;42.682;23.364;2023-02-14T04:34:09;32.38;;;18.48;;
36475;SDS011;56615;42.682;23.364;2023-02-14T04:36:34;30.17;;;18.35;;
36475;SDS011;56615;42.682;23.364;2023-02-14T04:39:00;31.45;;;18.00;;
36475;SDS011;56615;42.682;23.364;2023-02-14T04:41:26;31.77;;;17.55;;
36475;SDS011;56615;42.682;23.364;2023-02-14T04:43:51;35.17;;;18.23;;
36475;SDS011;56615;42.682;23.364;2023-02-14T04:46:16;27.83;;;18.08;;
36475;SDS011;56615;42.682;23.364;2023-02-14T04:48:42;34.53;;;18.17;;
36475;SDS011;56615;42.682;23.364;2023-02-14T04:51:07;27.85;;;17.73;;
36475;SDS011;56615;42.682;23.364;2023-02-14T04:53:32;31.15;;;17.67;;
36475;SDS011;56615;42.682;23.364;2023-02-14T04:56:04;28.95;;;17.35;;
36475;SDS011;56615;42.682;23.364;2023-02-14T04:58:32;28.58;;;17.30;;
36475;SDS011;56615;42.682;23.364;2023-02-14T05:00:57;27.65;;;16.52;;
36475;SDS011;56615;42.682;23.364;2023-02-14T05:03:23;30.70;;;17.33;;
36475;SDS011;56615;42.682;23.364;2023-02-14T05:05:48;28.63;;;16.80;;
36475;SDS011;56615;42.682;23.364;2023-02-14T05:08:14;26.67;;;15.88;;
36475;SDS011;56615;42.682;23.364;2023-02-14T05:10:41;26.90;;;15.88;;
36475;SDS011;56615;42.682;23.364;2023-02-14T05:13:06;27.20;;;16.35;;
36475;SDS011;56615;42.682;23.364;2023-02-14T05:15:32;27.55;;;15.77;;
36475;SDS011;56615;42.682;23.364;2023-02-14T05:17:58;25.23;;;16.08;;
36475;SDS011;56615;42.682;23.364;2023-02-14T05:20:27;32.75;;;17.95;;
36475;SDS011;56615;42.682;23.364;2023-02-14T05:22:53;32.08;;;17.40;;
36475;SDS011;56615;42.682;23.364;2023-02-14T05:25:18;27.98;;;17.08;;
36475;SDS011;56615;42.682;23.364;2023-02-14T05:27:44;27.75;;;16.65;;
36475;SDS011;56615;42.682;23.364;2023-02-14T05:30:10;25.83;;;15.27;;
36475;SDS011;56615;42.682;23.364;2023-02-14T05:32:37;27.85;;;16.35;;
36475;SDS011;56615;42.682;23.364;2023-02-14T05:35:03;28.15;;;15.38;;
36475;SDS011;56615;42.682;23.364;2023-02-14T05:37:28;27.88;;;15.93;;
36475;SDS011;56615;42.682;23.364;2023-02-14T05:39:54;27.27;;;15.45;;
36475;SDS011;56615;42.682;23.364;2023-02-14T05:42:19;26.80;;;15.77;;
36475;SDS011;56615;42.682;23.364;2023-02-14T05:44:45;31.67;;;16.80;;
36475;SDS011;56615;42.682;23.364;2023-02-14T05:47:10;25.52;;;15.60;;
36475;SDS011;56615;42.682;23.364;2023-02-14T05:49:35;27.35;;;15.75;;
36475;SDS011;56615;42.682;23.364;2023-02-14T05:52:01;26.05;;;16.00;;
36475;SDS011;56615;42.682;23.364;2023-02-14T05:54:26;26.67;;;15.55;;
36475;SDS011;56615;42.682;23.364;2023-02-14T05:56:51;29.83;;;16.48;;
36475;SDS011;56615;42.682;23.364;2023-02-14T05:59:17;28.08;;;15.32;;
36475;SDS011;56615;42.682;23.364;2023-02-14T06:01:42;28.60;;;16.35;;
36475;SDS011;56615;42.682;23.364;2023-02-14T06:04:08;27.02;;;15.88;;
36475;SDS011;56615;42.682;23.364;2023-02-14T06:06:33;29.02;;;16.63;;
36475;SDS011;56615;42.682;23.364;2023-02-14T06:08:58;28.25;;;15.85;;
36475;SDS011;56615;42.682;23.364;2023-02-14T06:11:24;24.63;;;15.65;;
36475;SDS011;56615;42.682;23.364;2023-02-14T06:13:49;26.40;;;15.70;;
36475;SDS011;56615;42.682;23.364;2023-02-14T06:16:14;30.38;;;17.20;;
36475;SDS011;56615;42.682;23.364;2023-02-14T06:18:40;28.90;;;16.80;;
36475;SDS011;56615;42.682;23.364;2023-02-14T06:21:05;28.48;;;16.75;;
36475;SDS011;56615;42.682;23.364;2023-02-14T06:23:30;29.30;;;17.55;;
36475;SDS011;56615;42.682;23.364;2023-02-14T06:25:56;28.98;;;15.73;;
36475;SDS011;56615;42.682;23.364;2023-02-14T06:28:21;28.10;;;17.05;;
36475;SDS011;56615;42.682;23.364;2023-02-14T06:30:48;28.00;;;17.20;;
36475;SDS011;56615;42.682;23.364;2023-02-14T06:33:13;28.48;;;17.65;;
36475;SDS011;56615;42.682;23.364;2023-02-14T06:35:39;28.13;;;17.40;;
36475;SDS011;56615;42.682;23.364;2023-02-14T06:38:04;32.67;;;18.48;;
36475;SDS011;56615;42.682;23.364;2023-02-14T06:40:31;28.73;;;17.95;;
36475;SDS011;56615;42.682;23.364;2023-02-14T06:42:56;27.83;;;17.73;;
36475;SDS011;56615;42.682;23.364;2023-02-14T06:45:21;27.65;;;18.23;;
36475;SDS011;56615;42.682;23.364;2023-02-14T06:47:47;31.60;;;20.10;;
36475;SDS011;56615;42.682;23.364;2023-02-14T06:50:12;28.55;;;18.67;;
36475;SDS011;56615;42.682;23.364;2023-02-14T06:52:38;31.35;;;19.73;;
36475;SDS011;56615;42.682;23.364;2023-02-14T06:55:03;30.35;;;18.95;;
36475;SDS011;56615;42.682;23.364;2023-02-14T06:57:29;30.42;;;19.67;;
36475;SDS011;56615;42.682;23.364;2023-02-14T06:59:54;30.20;;;19.45;;
36475;SDS011;56615;42.682;23.364;2023-02-14T07:02:20;33.78;;;19.63;;
36475;SDS011;56615;42.682;23.364;2023-02-14T07:04:45;31.05;;;20.38;;
36475;SDS011;56615;42.682;23.364;2023-02-14T07:07:11;31.08;;;19.88;;
36475;SDS011;56615;42.682;23.364;2023-02-14T07:09:36;33.38;;;19.92;;
36475;SDS011;56615;42.682;23.364;2023-02-14T07:12:02;32.67;;;19.90;;
36475;SDS011;56615;42.682;23.364;2023-02-14T07:14:27;30.05;;;18.85;;
36475;SDS011;56615;42.682;23.364;2023-02-14T07:16:52;28.83;;;19.17;;
36475;SDS011;56615;42.682;23.364;2023-02-14T07:19:18;29.45;;;18.85;;
36475;SDS011;56615;42.682;23.364;2023-02-14T07:21:43;30.33;;;19.80;;
36475;SDS011;56615;42.682;23.364;2023-02-14T07:24:09;32.15;;;19.52;;
36475;SDS011;56615;42.682;23.364;2023-02-14T07:26:35;32.95;;;19.73;;
36475;SDS011;56615;42.682;23.364;2023-02-14T07:29:01;32.58;;;19.23;;
36475;SDS011;56615;42.682;23.364;2023-02-14T07:31:26;34.65;;;18.80;;
36475;SDS011;56615;42.682;23.364;2023-02-14T07:33:52;31.08;;;19.33;;
36475;SDS011;56615;42.682;23.364;2023-02-14T07:36:17;34.40;;;18.65;;
36475;SDS011;56615;42.682;23.364;2023-02-14T07:38:43;33.35;;;19.83;;
36475;SDS011;56615;42.682;23.364;2023-02-14T07:41:08;33.20;;;18.80;;
36475;SDS011;56615;42.682;23.364;2023-02-14T07:43:34;34.28;;;20.20;;
36475;SDS011;56615;42.682;23.364;2023-02-14T07:46:00;31.35;;;18.77;;
36475;SDS011;56615;42.682;23.364;2023-02-14T07:48:26;34.97;;;20.25;;
36475;SDS011;56615;42.682;23.364;2023-02-14T07:50:51;34.72;;;19.90;;
36475;SDS011;56615;42.682;23.364;2023-02-14T07:53:20;34.72;;;19.30;;
36475;SDS011;56615;42.682;23.364;2023-02-14T07:55:49;36.22;;;19.65;;
36475;SDS011;56615;42.682;23.364;2023-02-14T07:58:17;32.70;;;18.75;;
36475;SDS011;56615;42.682;23.364;2023-02-14T08:00:43;33.97;;;19.92;;
36475;SDS011;56615;42.682;23.364;2023-02-14T08:03:10;35.67;;;20.63;;
36475;SDS011;56615;42.682;23.364;2023-02-14T08:05:36;35.08;;;19.00;;
36475;SDS011;56615;42.682;23.364;2023-02-14T08:08:01;32.65;;;19.55;;
36475;SDS011;56615;42.682;23.364;2023-02-14T08:10:27;35.90;;;20.17;;
36475;SDS011;56615;42.682;23.364;2023-02-14T08:12:52;35.13;;;19.85;;
36475;SDS011;56615;42.682;23.364;2023-02-14T08:15:24;35.30;;;20.10;;
36475;SDS011;56615;42.682;23.364;2023-02-14T08:18:09;34.38;;;19.45;;
36475;SDS011;56615;42.682;23.364;2023-02-14T08:20:34;36.40;;;20.50;;
36475;SDS011;56615;42.682;23.364;2023-02-14T08:23:00;35.90;;;19.65;;
36475;SDS011;56615;42.682;23.364;2023-02-14T08:25:25;35.58;;;20.48;;
36475;SDS011;56615;42.682;23.364;2023-02-14T08:27:50;34.28;;;19.92;;
36475;SDS011;56615;42.682;23.364;2023-02-14T08:30:16;35.72;;;20.50;;
36475;SDS011;56615;42.682;23.364;2023-02-14T08:32:42;37.75;;;20.75;;
36475;SDS011;56615;42.682;23.364;2023-02-14T08:35:08;33.55;;;19.00;;
36475;SDS011;56615;42.682;23.364;2023-02-14T08:37:33;30.58;;;18.30;;
36475;SDS011;56615;42.682;23.364;2023-02-14T08:40:00;32.67;;;19.25;;
36475;SDS011;56615;42.682;23.364;2023-02-14T08:42:25;32.08;;;17.70;;
36475;SDS011;56615;42.682;23.364;2023-02-14T08:44:51;28.40;;;16.80;;
36475;SDS011;56615;42.682;23.364;2023-02-14T08:47:16;30.13;;;16.42;;
36475;SDS011;56615;42.682;23.364;2023-02-14T08:49:41;27.48;;;16.00;;
36475;SDS011;56615;42.682;23.364;2023-02-14T08:52:07;34.63;;;16.75;;
36475;SDS011;56615;42.682;23.364;2023-02-14T08:54:32;27.63;;;15.77;;
36475;SDS011;56615;42.682;23.364;2023-02-14T08:56:58;28.45;;;15.43;;
36475;SDS011;56615;42.682;23.364;2023-02-14T08:59:23;26.60;;;15.80;;
36475;SDS011;56615;42.682;23.364;2023-02-14T09:01:48;32.33;;;16.67;;
36475;SDS011;56615;42.682;23.364;2023-02-14T09:04:14;28.55;;;16.00;;
36475;SDS011;56615;42.682;23.364;2023-02-14T09:06:39;33.50;;;17.95;;
36475;SDS011;56615;42.682;23.364;2023-02-14T09:09:05;30.00;;;17.70;;
36475;SDS011;56615;42.682;23.364;2023-02-14T09:11:30;31.08;;;18.02;;
36475;SDS011;56615;42.682;23.364;2023-02-14T09:13:56;30.33;;;17.38;;
36475;SDS011;56615;42.682;23.364;2023-02-14T09:16:23;36.40;;;19.52;;
36475;SDS011;56615;42.682;23.364;2023-02-14T09:18:50;34.20;;;17.88;;
36475;SDS011;56615;42.682;23.364;2023-02-14T09:21:17;37.45;;;19.45;;
36475;SDS011;56615;42.682;23.364;2023-02-14T09:23:44;33.97;;;19.05;;
36475;SDS011;56615;42.682;23.364;2023-02-14T09:26:10;34.70;;;18.70;;
36475;SDS011;56615;42.682;23.364;2023-02-14T09:28:36;36.10;;;18.92;;
36475;SDS011;56615;42.682;23.364;2023-02-14T09:31:09;38.30;;;18.58;;
36475;SDS011;56615;42.682;23.364;2023-02-14T09:33:38;37.97;;;18.58;;
36475;SDS011;56615;42.682;23.364;2023-02-14T09:36:22;36.85;;;18.55;;
36475;SDS011;56615;42.682;23.364;2023-02-14T09:39:06;36.22;;;19.40;;
36475;SDS011;56615;42.682;23.364;2023-02-14T09:41:35;38.35;;;18.85;;
36475;SDS011;56615;42.682;23.364;2023-02-14T09:47:00;32.85;;;18.40;;
36475;SDS011;56615;42.682;23.364;2023-02-14T09:49:49;34.33;;;19.83;;
36475;SDS011;56615;42.682;23.364;2023-02-14T09:52:17;34.30;;;18.58;;
36475;SDS011;56615;42.682;23.364;2023-02-14T09:54:46;33.88;;;18.83;;
36475;SDS011;56615;42.682;23.364;2023-02-14T10:00:02;34.83;;;18.13;;
36475;SDS011;56615;42.682;23.364;2023-02-14T10:06:31;39.15;;;20.60;;
36475;SDS011;56615;42.682;23.364;2023-02-14T10:11:35;32.90;;;17.90;;
36475;SDS011;56615;42.682;23.364;2023-02-14T10:14:10;38.30;;;18.92;;
36475;SDS011;56615;42.682;23.364;2023-02-14T10:16:52;33.78;;;18.02;;
36475;SDS011;56615;42.682;23.364;2023-02-14T10:19:33;32.22;;;17.73;;
36475;SDS011;56615;42.682;23.364;2023-02-14T10:22:05;31.13;;;17.33;;
36475;SDS011;56615;42.682;23.364;2023-02-14T10:29:57;29.60;;;16.38;;
36475;SDS011;56615;42.682;23.364;2023-02-14T10:32:44;28.30;;;15.52;;
36475;SDS011;56615;42.682;23.364;2023-02-14T10:38:18;27.63;;;14.43;;
36475;SDS011;56615;42.682;23.364;2023-02-14T10:46:39;24.25;;;13.50;;
36475;SDS011;56615;42.682;23.364;2023-02-14T10:51:56;25.85;;;14.05;;
36475;SDS011;56615;42.682;23.364;2023-02-14T10:54:26;24.58;;;13.52;;
36475;SDS011;56615;42.682;23.364;2023-02-14T10:56:57;29.15;;;15.52;;
36475;SDS011;56615;42.682;23.364;2023-02-14T10:59:33;26.48;;;13.57;;
36475;SDS011;56615;42.682;23.364;2023-02-14T11:02:03;24.70;;;14.63;;
36475;SDS011;56615;42.682;23.364;2023-02-14T11:04:29;25.48;;;15.18;;
36475;SDS011;56615;42.682;23.364;2023-02-14T11:06:56;25.65;;;14.48;;
36475;SDS011;56615;42.682;23.364;2023-02-14T11:09:22;30.42;;;15.85;;
36475;SDS011;56615;42.682;23.364;2023-02-14T11:11:56;25.63;;;15.52;;
36475;SDS011;56615;42.682;23.364;2023-02-14T11:14:31;23.67;;;13.57;;
36475;SDS011;56615;42.682;23.364;2023-02-14T11:16:58;24.55;;;13.98;;
36475;SDS011;56615;42.682;23.364;2023-02-14T11:19:25;25.08;;;13.55;;
36475;SDS011;56615;42.682;23.364;2023-02-14T11:21:56;23.27;;;12.77;;
36475;SDS011;56615;42.682;23.364;2023-02-14T11:26:54;20.85;;;12.60;;
36475;SDS011;56615;42.682;23.364;2023-02-14T11:37:26;20.98;;;12.25;;
36475;SDS011;56615;42.682;23.364;2023-02-14T11:39:55;22.10;;;11.97;;
36475;SDS011;56615;42.682;23.364;2023-02-14T11:42:38;22.10;;;12.07;;
36475;SDS011;56615;42.682;23.364;2023-02-14T11:45:04;21.95;;;12.77;;
36475;SDS011;56615;42.682;23.364;2023-02-14T11:47:33;21.65;;;12.00;;
36475;SDS011;56615;42.682;23.364;2023-02-14T11:50:28;21.15;;;12.35;;
36475;SDS011;56615;42.682;23.364;2023-02-14T11:52:53;23.95;;;12.82;;
36475;SDS011;56615;42.682;23.364;2023-02-14T11:55:25;21.52;;;12.57;;
36475;SDS011;56615;42.682;23.364;2023-02-14T11:57:52;20.98;;;11.75;;
36475;SDS011;56615;42.682;23.364;2023-02-14T12:00:18;23.38;;;12.05;;
36475;SDS011;56615;42.682;23.364;2023-02-14T12:02:46;20.30;;;11.43;;
36475;SDS011;56615;42.682;23.364;2023-02-14T12:07:41;18.95;;;11.45;;
36475;SDS011;56615;42.682;23.364;2023-02-14T12:12:37;19.58;;;10.63;;
36475;SDS011;56615;42.682;23.364;2023-02-14T12:15:21;18.85;;;10.48;;
36475;SDS011;56615;42.682;23.364;2023-02-14T12:17:48;18.83;;;10.65;;
36475;SDS011;56615;42.682;23.364;2023-02-14T12:20:17;20.27;;;10.32;;
36475;SDS011;56615;42.682;23.364;2023-02-14T12:22:46;21.42;;;10.85;;
36475;SDS011;56615;42.682;23.364;2023-02-14T12:25:15;19.35;;;11.05;;
36475;SDS011;56615;42.682;23.364;2023-02-14T12:27:48;17.60;;;10.85;;
36475;SDS011;56615;42.682;23.364;2023-02-14T12:30:18;18.67;;;11.20;;
36475;SDS011;56615;42.682;23.364;2023-02-14T12:32:54;19.38;;;11.35;;
36475;SDS011;56615;42.682;23.364;2023-02-14T12:35:30;18.65;;;10.48;;
36475;SDS011;56615;42.682;23.364;2023-02-14T12:38:29;19.35;;;10.38;;
36475;SDS011;56615;42.682;23.364;2023-02-14T12:51:51;20.25;;;10.40;;
36475;SDS011;56615;42.682;23.364;2023-02-14T13:00:02;22.38;;;11.13;;
36475;SDS011;56615;42.682;23.364;2023-02-14T13:02:42;19.92;;;10.27;;
36475;SDS011;56615;42.682;23.364;2023-02-14T13:08:40;18.23;;;10.98;;
36475;SDS011;56615;42.682;23.364;2023-02-14T13:11:35;19.30;;;11.55;;
36475;SDS011;56615;42.682;23.364;2023-02-14T13:16:56;21.80;;;11.88;;
36475;SDS011;56615;42.682;23.364;2023-02-14T13:19:35;23.73;;;11.52;;
36475;SDS011;56615;42.682;23.364;2023-02-14T13:22:19;19.08;;;11.90;;
36475;SDS011;56615;42.682;23.364;2023-02-14T13:24:47;17.80;;;11.00;;
36475;SDS011;56615;42.682;23.364;2023-02-14T13:27:17;21.00;;;11.90;;
36475;SDS011;56615;42.682;23.364;2023-02-14T13:29:50;20.00;;;11.40;;
36475;SDS011;56615;42.682;23.364;2023-02-14T13:32:22;21.13;;;11.07;;
36475;SDS011;56615;42.682;23.364;2023-02-14T13:34:49;20.95;;;11.45;;
36475;SDS011;56615;42.682;23.364;2023-02-14T13:37:16;21.80;;;11.60;;
36475;SDS011;56615;42.682;23.364;2023-02-14T13:39:57;21.98;;;12.38;;
36475;SDS011;56615;42.682;23.364;2023-02-14T13:50:29;21.48;;;13.10;;
36475;SDS011;56615;42.682;23.364;2023-02-14T13:52:54;21.55;;;12.43;;
36475;SDS011;56615;42.682;23.364;2023-02-14T13:55:42;20.88;;;12.77;;
36475;SDS011;56615;42.682;23.364;2023-02-14T13:58:14;20.45;;;12.55;;
36475;SDS011;56615;42.682;23.364;2023-02-14T14:00:43;20.65;;;12.20;;
36475;SDS011;56615;42.682;23.364;2023-02-14T14:06:14;21.15;;;12.65;;
36475;SDS011;56615;42.682;23.364;2023-02-14T14:08:40;22.95;;;13.75;;
36475;SDS011;56615;42.682;23.364;2023-02-14T14:13:58;21.95;;;13.20;;
36475;SDS011;56615;42.682;23.364;2023-02-14T14:16:26;21.10;;;12.60;;
36475;SDS011;56615;42.682;23.364;2023-02-14T14:19:01;22.40;;;13.60;;
36475;SDS011;56615;42.682;23.364;2023-02-14T14:21:41;23.50;;;12.93;;
36475;SDS011;56615;42.682;23.364;2023-02-14T14:31:54;19.92;;;12.40;;
36475;SDS011;56615;42.682;23.364;2023-02-14T14:34:20;19.10;;;12.55;;
36475;SDS011;56615;42.682;23.364;2023-02-14T14:37:36;25.13;;;13.10;;
36475;SDS011;56615;42.682;23.364;2023-02-14T14:39:48;20.27;;;12.30;;
36475;SDS011;56615;42.682;23.364;2023-02-14T14:42:18;21.80;;;12.95;;
36475;SDS011;56615;42.682;23.364;2023-02-14T14:50:15;20.40;;;12.77;;
36475;SDS011;56615;42.682;23.364;2023-02-14T14:52:50;22.85;;;12.57;;
36475;SDS011;56615;42.682;23.364;2023-02-14T14:55:22;21.10;;;12.98;;
36475;SDS011;56615;42.682;23.364;2023-02-14T14:57:52;20.92;;;12.15;;
36475;SDS011;56615;42.682;23.364;2023-02-14T15:02:55;20.15;;;12.52;;
36475;SDS011;56615;42.682;23.364;2023-02-14T15:05:25;23.23;;;13.48;;
36475;SDS011;56615;42.682;23.364;2023-02-14T15:07:53;21.10;;;12.48;;
36475;SDS011;56615;42.682;23.364;2023-02-14T15:10:20;20.50;;;12.32;;
36475;SDS011;56615;42.682;23.364;2023-02-14T15:12:48;23.35;;;13.45;;
36475;SDS011;56615;42.682;23.364;2023-02-14T15:15:34;22.70;;;13.57;;
36475;SDS011;56615;42.682;23.364;2023-02-14T15:18:06;22.50;;;12.73;;
36475;SDS011;56615;42.682;23.364;2023-02-14T15:20:32;22.63;;;12.63;;
36475;SDS011;56615;42.682;23.364;2023-02-14T15:22:58;22.40;;;12.32;;
36475;SDS011;56615;42.682;23.364;2023-02-14T15:25:26;21.70;;;13.25;;
36475;SDS011;56615;42.682;23.364;2023-02-14T15:27:53;22.83;;;12.40;;
36475;SDS011;56615;42.682;23.364;2023-02-14T15:32:44;20.73;;;12.50;;
36475;SDS011;56615;42.682;23.364;2023-02-14T15:35:12;21.40;;;13.20;;
36475;SDS011;56615;42.682;23.364;2023-02-14T15:37:40;21.67;;;12.52;;
36475;SDS011;56615;42.682;23.364;2023-02-14T15:40:06;21.75;;;13.05;;
36475;SDS011;56615;42.682;23.364;2023-02-14T15:42:33;24.08;;;13.05;;
36475;SDS011;56615;42.682;23.364;2023-02-14T15:50:14;20.80;;;12.77;;
36475;SDS011;56615;42.682;23.364;2023-02-14T15:52:44;20.33;;;13.02;;
36475;SDS011;56615;42.682;23.364;2023-02-14T15:55:18;22.13;;;13.23;;
36475;SDS011;56615;42.682;23.364;2023-02-14T15:57:52;23.90;;;13.82;;
36475;SDS011;56615;42.682;23.364;2023-02-14T16:00:19;24.17;;;13.45;;
36475;SDS011;56615;42.682;23.364;2023-02-14T16:02:48;23.55;;;12.82;;
36475;SDS011;56615;42.682;23.364;2023-02-14T16:05:17;20.42;;;12.55;;
36475;SDS011;56615;42.682;23.364;2023-02-14T16:10:35;23.08;;;13.02;;
36475;SDS011;56615;42.682;23.364;2023-02-14T16:15:37;22.67;;;14.00;;
36475;SDS011;56615;42.682;23.364;2023-02-14T16:18:17;20.55;;;12.65;;
36475;SDS011;56615;42.682;23.364;2023-02-14T16:20:43;21.88;;;12.82;;
36475;SDS011;56615;42.682;23.364;2023-02-14T16:23:13;24.65;;;12.85;;
36475;SDS011;56615;42.682;23.364;2023-02-14T16:25:39;20.85;;;12.48;;
36475;SDS011;56615;42.682;23.364;2023-02-14T16:28:05;19.35;;;12.70;;
36475;SDS011;56615;42.682;23.364;2023-02-14T16:30:31;66.38;;;40.55;;
36475;SDS011;56615;42.682;23.364;2023-02-14T16:32:57;89.32;;;50.60;;
36475;SDS011;56615;42.682;23.364;2023-02-14T16:35:23;36.33;;;22.73;;
36475;SDS011;56615;42.682;23.364;2023-02-14T16:37:49;23.00;;;15.55;;
36475;SDS011;56615;42.682;23.364;2023-02-14T16:40:14;21.25;;;12.25;;
36475;SDS011;56615;42.682;23.364;2023-02-14T16:42:40;20.83;;;12.75;;
36475;SDS011;56615;42.682;23.364;2023-02-14T16:45:09;20.92;;;12.60;;
36475;SDS011;56615;42.682;23.364;2023-02-14T16:47:39;20.95;;;13.15;;
36475;SDS011;56615;42.682;23.364;2023-02-14T16:50:04;21.27;;;12.63;;
36475;SDS011;56615;42.682;23.364;2023-02-14T16:52:30;25.88;;;14.65;;
36475;SDS011;56615;42.682;23.364;2023-02-14T16:54:58;25.58;;;14.07;;
36475;SDS011;56615;42.682;23.364;2023-02-14T16:57:25;22.70;;;15.02;;
36475;SDS011;56615;42.682;23.364;2023-02-14T16:59:52;23.50;;;14.32;;
36475;SDS011;56615;42.682;23.364;2023-02-14T17:02:18;22.35;;;14.57;;
36475;SDS011;56615;42.682;23.364;2023-02-14T17:04:44;28.52;;;14.70;;
36475;SDS011;56615;42.682;23.364;2023-02-14T17:07:09;26.05;;;16.23;;